sensor_id;sensor_type;location;lat;lon;timestamp;pressure;altitude;pressure_sealevel;temperature;humidity
29385;BME280;16367;48.736;9.218;2023-05-18T00:01:54;-23413.56;;;7.75;90.31
29385;BME280;16367;48.736;9.218;2023-05-18T00:03:56;-23411.66;;;7.69;90.58
29385;BME280;16367;48.736;9.218;2023-05-18T00:05:59;-23409.91;;;7.64;93.72
29385;BME280;16367;48.736;9.218;2023-05-18T00:08:05;-23406.28;;;7.52;96.71
29385;BME280;16367;48.736;9.218;2023-05-18T00:10:10;-23405.78;;;7.50;99.18
29385;BME280;16367;48.736;9.218;2023-05-18T00:12:13;-23403.25;;;7.42;100.00
29385;BME280;16367;48.736;9.218;2023-05-18T00:14:17;-23403.25;;;7.42;100.00
29385;BME280;16367;48.736;9.218;2023-05-18T00:16:20;-23400.38;;;7.33;100.00
29385;BME280;16367;48.736;9.218;2023-05-18T00:18:23;-23396.41;;;7.21;100.00
29385;BME280;16367;48.736;9.218;2023-05-18T00:20:27;-23395.16;;;7.17;100.00
29385;BME280;16367;48.736;9.218;2023-05-18T00:22:30;-23395.00;;;7.16;100.00
29385;BME280;16367;48.736;9.218;2023-05-18T00:24:33;-23391.16;;;7.04;100.00
29385;BME280;16367;48.736;9.218;2023-05-18T00:26:38;-23389.75;;;7.00;100.00
29385;BME280;16367;48.736;9.218;2023-05-18T00:28:40;-23388.63;;;6.96;100.00
29385;BME280;16367;48.736;9.218;2023-05-18T00:30:45;-23387.69;;;6.93;100.00
29385;BME280;16367;48.736;9.218;2023-05-18T00:32:47;-23387.19;;;6.92;100.00
29385;BME280;16367;48.736;9.218;2023-05-18T00:34:50;-23388.16;;;6.95;100.00
29385;BME280;16367;48.736;9.218;2023-05-18T00:36:53;-23388.16;;;6.95;100.00
29385;BME280;16367;48.736;9.218;2023-05-18T00:38:56;-23385.28;;;6.86;100.00
29385;BME280;16367;48.736;9.218;2023-05-18T00:40:58;-23384.97;;;6.85;100.00
29385;BME280;16367;48.736;9.218;2023-05-18T00:43:01;-23385.44;;;6.86;100.00
29385;BME280;16367;48.736;9.218;2023-05-18T00:45:05;-23387.03;;;6.91;100.00
29385;BME280;16367;48.736;9.218;2023-05-18T00:47:10;-23384.66;;;6.84;100.00
29385;BME280;16367;48.736;9.218;2023-05-18T00:49:13;-23386.09;;;6.88;100.00
29385;BME280;16367;48.736;9.218;2023-05-18T00:51:16;-23384.34;;;6.83;100.00
29385;BME280;16367;48.736;9.218;2023-05-18T00:53:19;-23384.97;;;6.85;100.00
29385;BME280;16367;48.736;9.218;2023-05-18T00:55:22;-23381.97;;;6.75;100.00
29385;BME280;16367;48.736;9.218;2023-05-18T00:57:25;-23384.03;;;6.82;100.00
29385;BME280;16367;48.736;9.218;2023-05-18T00:59:29;-23383.53;;;6.80;100.00
29385;BME280;16367;48.736;9.218;2023-05-18T01:01:33;-23382.91;;;6.78;100.00
29385;BME280;16367;48.736;9.218;2023-05-18T01:03:38;-23383.22;;;6.79;100.00
29385;BME280;16367;48.736;9.218;2023-05-18T01:05:43;-23380.53;;;6.70;100.00
29385;BME280;16367;48.736;9.218;2023-05-18T01:07:46;-23381.47;;;6.73;100.00
29385;BME280;16367;48.736;9.218;2023-05-18T01:09:51;-23379.25;;;6.66;100.00
29385;BME280;16367;48.736;9.218;2023-05-18T01:11:59;-23376.72;;;6.58;100.00
29385;BME280;16367;48.736;9.218;2023-05-18T01:16:42;-23376.41;;;6.57;100.00
29385;BME280;16367;48.736;9.218;2023-05-18T01:18:53;-23375.75;;;6.55;100.00
29385;BME280;16367;48.736;9.218;2023-05-18T01:21:10;-23376.72;;;6.58;100.00
29385;BME280;16367;48.736;9.218;2023-05-18T01:23:39;-23376.41;;;6.57;100.00
29385;BME280;16367;48.736;9.218;2023-05-18T01:25:58;-23375.44;;;6.54;100.00
29385;BME280;16367;48.736;9.218;2023-05-18T01:28:05;-23376.88;;;6.59;100.00
29385;BME280;16367;48.736;9.218;2023-05-18T01:30:11;-23376.56;;;6.58;100.00
29385;BME280;16367;48.736;9.218;2023-05-18T01:32:17;-23378.78;;;6.65;100.00
29385;BME280;16367;48.736;9.218;2023-05-18T01:34:19;-23377.03;;;6.59;100.00
29385;BME280;16367;48.736;9.218;2023-05-18T01:36:22;-23375.44;;;6.54;100.00
29385;BME280;16367;48.736;9.218;2023-05-18T01:38:26;-23374.50;;;6.51;100.00
29385;BME280;16367;48.736;9.218;2023-05-18T01:40:32;-23372.09;;;6.44;100.00
29385;BME280;16367;48.736;9.218;2023-05-18T01:42:42;-23372.72;;;6.46;100.00
29385;BME280;16367;48.736;9.218;2023-05-18T01:44:50;-23371.47;;;6.42;100.00
29385;BME280;16367;48.736;9.218;2023-05-18T01:46:58;-23369.06;;;6.34;100.00
29385;BME280;16367;48.736;9.218;2023-05-18T01:49:08;-23370.34;;;6.38;100.00
29385;BME280;16367;48.736;9.218;2023-05-18T01:51:13;-23368.91;;;6.34;100.00
29385;BME280;16367;48.736;9.218;2023-05-18T01:53:22;-23368.13;;;6.31;100.00
29385;BME280;16367;48.736;9.218;2023-05-18T01:55:28;-23369.72;;;6.36;100.00
29385;BME280;16367;48.736;9.218;2023-05-18T01:57:34;-23371.94;;;6.43;100.00
29385;BME280;16367;48.736;9.218;2023-05-18T01:59:39;-23368.91;;;6.34;100.00
29385;BME280;16367;48.736;9.218;2023-05-18T02:01:42;-23366.38;;;6.26;100.00
29385;BME280;16367;48.736;9.218;2023-05-18T02:03:45;-23367.34;;;6.29;100.00
29385;BME280;16367;48.736;9.218;2023-05-18T02:05:48;-23364.63;;;6.20;100.00
29385;BME280;16367;48.736;9.218;2023-05-18T02:07:51;-23366.06;;;6.25;100.00
29385;BME280;16367;48.736;9.218;2023-05-18T02:09:54;-23363.03;;;6.15;100.00
29385;BME280;16367;48.736;9.218;2023-05-18T02:11:56;-23364.00;;;6.18;100.00
29385;BME280;16367;48.736;9.218;2023-05-18T02:13:59;-23368.44;;;6.32;100.00
29385;BME280;16367;48.736;9.218;2023-05-18T02:16:04;-23368.44;;;6.32;100.00
29385;BME280;16367;48.736;9.218;2023-05-18T02:18:07;-23365.25;;;6.22;100.00
29385;BME280;16367;48.736;9.218;2023-05-18T02:20:10;-23365.44;;;6.23;100.00
29385;BME280;16367;48.736;9.218;2023-05-18T02:22:12;-23364.63;;;6.20;100.00
29385;BME280;16367;48.736;9.218;2023-05-18T02:24:15;-23365.25;;;6.22;100.00
29385;BME280;16367;48.736;9.218;2023-05-18T02:26:18;-23370.81;;;6.40;100.00
29385;BME280;16367;48.736;9.218;2023-05-18T02:28:21;-23368.28;;;6.32;100.00
29385;BME280;16367;48.736;9.218;2023-05-18T02:30:24;-23370.81;;;6.40;100.00
29385;BME280;16367;48.736;9.218;2023-05-18T02:32:28;-23369.06;;;6.34;100.00
29385;BME280;16367;48.736;9.218;2023-05-18T02:34:32;-23371.00;;;6.40;100.00
29385;BME280;16367;48.736;9.218;2023-05-18T02:36:38;-23372.56;;;6.45;100.00
29385;BME280;16367;48.736;9.218;2023-05-18T02:38:43;-23372.25;;;6.44;100.00
29385;BME280;16367;48.736;9.218;2023-05-18T02:40:46;-23371.00;;;6.40;100.00
29385;BME280;16367;48.736;9.218;2023-05-18T02:42:49;-23374.16;;;6.50;100.00
29385;BME280;16367;48.736;9.218;2023-05-18T02:44:52;-23372.72;;;6.46;100.00
29385;BME280;16367;48.736;9.218;2023-05-18T02:46:56;-23375.13;;;6.53;100.00
29385;BME280;16367;48.736;9.218;2023-05-18T02:49:00;-23373.22;;;6.47;100.00
29385;BME280;16367;48.736;9.218;2023-05-18T02:51:03;-23370.50;;;6.39;100.00
29385;BME280;16367;48.736;9.218;2023-05-18T02:53:06;-23368.75;;;6.33;100.00
29385;BME280;16367;48.736;9.218;2023-05-18T02:55:09;-23373.06;;;6.47;100.00
29385;BME280;16367;48.736;9.218;2023-05-18T02:57:14;-23370.19;;;6.38;100.00
29385;BME280;16367;48.736;9.218;2023-05-18T02:59:17;-23370.34;;;6.38;100.00
29385;BME280;16367;48.736;9.218;2023-05-18T03:01:20;-23370.19;;;6.38;100.00
29385;BME280;16367;48.736;9.218;2023-05-18T03:03:23;-23371.00;;;6.40;100.00
29385;BME280;16367;48.736;9.218;2023-05-18T03:05:27;-23367.34;;;6.29;100.00
29385;BME280;16367;48.736;9.218;2023-05-18T03:07:30;-23365.56;;;6.23;100.00
29385;BME280;16367;48.736;9.218;2023-05-18T03:09:33;-23362.06;;;6.12;100.00
29385;BME280;16367;48.736;9.218;2023-05-18T03:11:36;-23364.16;;;6.19;100.00
29385;BME280;16367;48.736;9.218;2023-05-18T03:13:39;-23361.75;;;6.11;100.00
29385;BME280;16367;48.736;9.218;2023-05-18T03:15:41;-23361.13;;;6.09;100.00
29385;BME280;16367;48.736;9.218;2023-05-18T03:17:45;-23358.75;;;6.01;100.00
29385;BME280;16367;48.736;9.218;2023-05-18T03:19:50;-23358.75;;;6.01;100.00
29385;BME280;16367;48.736;9.218;2023-05-18T03:21:54;-23358.59;;;6.01;100.00
29385;BME280;16367;48.736;9.218;2023-05-18T03:23:58;-23357.94;;;5.99;100.00
29385;BME280;16367;48.736;9.218;2023-05-18T03:26:01;-23359.22;;;6.03;100.00
29385;BME280;16367;48.736;9.218;2023-05-18T03:28:04;-23357.47;;;5.97;100.00
29385;BME280;16367;48.736;9.218;2023-05-18T03:30:08;-23358.44;;;6.00;100.00
29385;BME280;16367;48.736;9.218;2023-05-18T03:32:11;-23357.00;;;5.96;100.00
29385;BME280;16367;48.736;9.218;2023-05-18T03:34:13;-23359.84;;;6.05;100.00
29385;BME280;16367;48.736;9.218;2023-05-18T03:36:16;-23361.13;;;6.09;100.00
29385;BME280;16367;48.736;9.218;2023-05-18T03:38:20;-23358.91;;;6.02;100.00
29385;BME280;16367;48.736;9.218;2023-05-18T03:40:23;-23361.59;;;6.11;100.00
29385;BME280;16367;48.736;9.218;2023-05-18T03:42:26;-23358.25;;;6.00;100.00
29385;BME280;16367;48.736;9.218;2023-05-18T03:44:29;-23357.47;;;5.97;100.00
29385;BME280;16367;48.736;9.218;2023-05-18T03:46:32;-23356.50;;;5.94;100.00
29385;BME280;16367;48.736;9.218;2023-05-18T03:48:35;-23357.47;;;5.97;100.00
29385;BME280;16367;48.736;9.218;2023-05-18T03:50:38;-23357.00;;;5.96;100.00
29385;BME280;16367;48.736;9.218;2023-05-18T03:52:42;-23355.25;;;5.90;100.00
29385;BME280;16367;48.736;9.218;2023-05-18T03:54:46;-23354.13;;;5.87;100.00
29385;BME280;16367;48.736;9.218;2023-05-18T03:56:50;-23354.75;;;5.89;100.00
29385;BME280;16367;48.736;9.218;2023-05-18T03:58:52;-23354.94;;;5.89;100.00
29385;BME280;16367;48.736;9.218;2023-05-18T04:00:55;-23353.97;;;5.86;100.00
29385;BME280;16367;48.736;9.218;2023-05-18T04:02:58;-23354.28;;;5.87;100.00
29385;BME280;16367;48.736;9.218;2023-05-18T04:05:04;-23351.25;;;5.78;100.00
29385;BME280;16367;48.736;9.218;2023-05-18T04:07:07;-23353.50;;;5.85;100.00
29385;BME280;16367;48.736;9.218;2023-05-18T04:09:10;-23355.56;;;5.91;100.00
29385;BME280;16367;48.736;9.218;2023-05-18T04:11:16;-23353.81;;;5.86;100.00
29385;BME280;16367;48.736;9.218;2023-05-18T04:13:19;-23358.09;;;5.99;100.00
29385;BME280;16367;48.736;9.218;2023-05-18T04:15:22;-23357.00;;;5.96;100.00
29385;BME280;16367;48.736;9.218;2023-05-18T04:17:24;-23355.88;;;5.92;100.00
29385;BME280;16367;48.736;9.218;2023-05-18T04:19:27;-23358.25;;;6.00;100.00
29385;BME280;16367;48.736;9.218;2023-05-18T04:21:30;-23358.44;;;6.00;100.00
29385;BME280;16367;48.736;9.218;2023-05-18T04:23:35;-23358.25;;;6.00;100.00
29385;BME280;16367;48.736;9.218;2023-05-18T04:25:39;-23361.75;;;6.11;100.00
29385;BME280;16367;48.736;9.218;2023-05-18T04:27:43;-23365.91;;;6.24;100.00
29385;BME280;16367;48.736;9.218;2023-05-18T04:29:46;-23376.56;;;6.58;100.00
29385;BME280;16367;48.736;9.218;2023-05-18T04:31:49;-23385.44;;;6.86;100.00
29385;BME280;16367;48.736;9.218;2023-05-18T04:33:54;-23385.28;;;6.86;99.05
29385;BME280;16367;48.736;9.218;2023-05-18T04:35:58;-23404.34;;;7.46;95.99
29385;BME280;16367;48.736;9.218;2023-05-18T04:38:05;-23397.06;;;7.23;94.56
29385;BME280;16367;48.736;9.218;2023-05-18T04:40:34;-23412.63;;;7.72;91.81
29385;BME280;16367;48.736;9.218;2023-05-18T04:42:39;-23408.16;;;7.58;91.02
29385;BME280;16367;48.736;9.218;2023-05-18T04:44:47;-23411.03;;;7.67;91.52
29385;BME280;16367;48.736;9.218;2023-05-18T04:46:52;-23412.94;;;7.73;90.04
29385;BME280;16367;48.736;9.218;2023-05-18T04:48:55;-23418.34;;;7.90;89.80
29385;BME280;16367;48.736;9.218;2023-05-18T04:50:59;-23420.72;;;7.98;89.41
29385;BME280;16367;48.736;9.218;2023-05-18T04:53:01;-23424.38;;;8.09;88.23
29385;BME280;16367;48.736;9.218;2023-05-18T04:55:07;-23426.59;;;8.16;87.38
29385;BME280;16367;48.736;9.218;2023-05-18T04:57:11;-23419.44;;;7.94;88.20
29385;BME280;16367;48.736;9.218;2023-05-18T04:59:14;-23422.78;;;8.04;88.41
29385;BME280;16367;48.736;9.218;2023-05-18T05:01:18;-23426.13;;;8.15;87.29
29385;BME280;16367;48.736;9.218;2023-05-18T05:03:21;-23446.59;;;8.80;84.54
29385;BME280;16367;48.736;9.218;2023-05-18T05:05:24;-23433.28;;;8.38;84.08
29385;BME280;16367;48.736;9.218;2023-05-18T05:07:28;-23446.59;;;8.80;82.40
29385;BME280;16367;48.736;9.218;2023-05-18T05:09:30;-23440.56;;;8.61;82.17
29385;BME280;16367;48.736;9.218;2023-05-18T05:11:33;-23432.63;;;8.36;83.53
29385;BME280;16367;48.736;9.218;2023-05-18T05:13:36;-23431.34;;;8.32;84.17
29385;BME280;16367;48.736;9.218;2023-05-18T05:15:38;-23424.69;;;8.10;85.88
29385;BME280;16367;48.736;9.218;2023-05-18T05:17:43;-23422.47;;;8.03;86.24
29385;BME280;16367;48.736;9.218;2023-05-18T05:19:45;-23412.31;;;7.71;87.31
29385;BME280;16367;48.736;9.218;2023-05-18T05:21:48;-23416.09;;;7.83;87.81
29385;BME280;16367;48.736;9.218;2023-05-18T05:23:51;-23415.16;;;7.80;87.57
29385;BME280;16367;48.736;9.218;2023-05-18T05:25:54;-23412.78;;;7.73;88.27
29385;BME280;16367;48.736;9.218;2023-05-18T05:27:56;-23415.97;;;7.83;87.64
29385;BME280;16367;48.736;9.218;2023-05-18T05:29:59;-23423.72;;;8.07;86.50
29385;BME280;16367;48.736;9.218;2023-05-18T05:32:02;-23420.41;;;7.97;87.04
29385;BME280;16367;48.736;9.218;2023-05-18T05:34:07;-23428.34;;;8.22;85.11
29385;BME280;16367;48.736;9.218;2023-05-18T05:36:12;-23416.91;;;7.86;87.01
29385;BME280;16367;48.736;9.218;2023-05-18T05:38:14;-23423.41;;;8.06;87.86
29385;BME280;16367;48.736;9.218;2023-05-18T05:40:17;-23428.50;;;8.22;86.02
29385;BME280;16367;48.736;9.218;2023-05-18T05:42:20;-23425.63;;;8.13;84.18
29385;BME280;16367;48.736;9.218;2023-05-18T05:44:23;-23434.69;;;8.42;84.58
29385;BME280;16367;48.736;9.218;2023-05-18T05:46:26;-23439.94;;;8.59;84.19
29385;BME280;16367;48.736;9.218;2023-05-18T05:48:28;-23452.78;;;8.99;82.04
29385;BME280;16367;48.736;9.218;2023-05-18T05:50:32;-23453.72;;;9.02;81.42
29385;BME280;16367;48.736;9.218;2023-05-18T05:52:35;-23451.34;;;8.95;81.26
29385;BME280;16367;48.736;9.218;2023-05-18T05:54:39;-23459.44;;;9.21;80.37
29385;BME280;16367;48.736;9.218;2023-05-18T05:56:42;-23455.16;;;9.07;81.57
29385;BME280;16367;48.736;9.218;2023-05-18T05:58:45;-23470.53;;;9.56;80.27
29385;BME280;16367;48.736;9.218;2023-05-18T06:00:47;-23478.00;;;9.80;79.54
29385;BME280;16367;48.736;9.218;2023-05-18T06:02:51;-23476.72;;;9.75;75.82
29385;BME280;16367;48.736;9.218;2023-05-18T06:04:54;-23472.59;;;9.62;77.69
29385;BME280;16367;48.736;9.218;2023-05-18T06:06:58;-23471.97;;;9.60;75.80
29385;BME280;16367;48.736;9.218;2023-05-18T06:09:01;-23473.41;;;9.65;75.84
29385;BME280;16367;48.736;9.218;2023-05-18T06:11:04;-23477.38;;;9.77;75.57
29385;BME280;16367;48.736;9.218;2023-05-18T06:13:10;-23473.25;;;9.64;74.83
29385;BME280;16367;48.736;9.218;2023-05-18T06:15:13;-23482.44;;;9.94;75.60
29385;BME280;16367;48.736;9.218;2023-05-18T06:17:15;-23491.31;;;10.22;73.77
29385;BME280;16367;48.736;9.218;2023-05-18T06:19:18;-23488.78;;;10.14;74.33
29385;BME280;16367;48.736;9.218;2023-05-18T06:21:21;-23486.72;;;10.07;73.06
29385;BME280;16367;48.736;9.218;2023-05-18T06:23:25;-23482.44;;;9.94;73.39
29385;BME280;16367;48.736;9.218;2023-05-18T06:25:28;-23508.59;;;10.77;69.89
29385;BME280;16367;48.736;9.218;2023-05-18T06:27:31;-23489.25;;;10.15;72.17
29385;BME280;16367;48.736;9.218;2023-05-18T06:29:34;-23495.91;;;10.36;73.09
29385;BME280;16367;48.736;9.218;2023-05-18T06:31:37;-23502.25;;;10.57;71.35
29385;BME280;16367;48.736;9.218;2023-05-18T06:33:40;-23517.47;;;11.05;70.90
29385;BME280;16367;48.736;9.218;2023-05-18T06:35:42;-23528.06;;;11.39;69.56
29385;BME280;16367;48.736;9.218;2023-05-18T06:37:45;-23520.16;;;11.13;69.61
29385;BME280;16367;48.736;9.218;2023-05-18T06:39:49;-23511.59;;;10.86;69.24
29385;BME280;16367;48.736;9.218;2023-05-18T06:41:52;-23521.56;;;11.18;69.35
29385;BME280;16367;48.736;9.218;2023-05-18T06:43:54;-23512.22;;;10.88;70.16
29385;BME280;16367;48.736;9.218;2023-05-18T06:46:00;-23525.06;;;11.29;70.93
29385;BME280;16367;48.736;9.218;2023-05-18T06:48:03;-23515.41;;;10.98;69.39
29385;BME280;16367;48.736;9.218;2023-05-18T06:50:07;-23500.19;;;10.50;71.11
29385;BME280;16367;48.736;9.218;2023-05-18T06:52:09;-23506.22;;;10.69;71.25
29385;BME280;16367;48.736;9.218;2023-05-18T06:54:14;-23542.00;;;11.83;67.30
29385;BME280;16367;48.736;9.218;2023-05-18T06:56:18;-23546.75;;;11.98;67.57
29385;BME280;16367;48.736;9.218;2023-05-18T06:58:22;-23555.59;;;12.26;66.34
29385;BME280;16367;48.736;9.218;2023-05-18T07:00:24;-23532.19;;;11.52;66.41
29385;BME280;16367;48.736;9.218;2023-05-18T07:02:27;-23568.25;;;12.66;63.86
29385;BME280;16367;48.736;9.218;2023-05-18T07:04:30;-23557.50;;;12.32;63.59
29385;BME280;16367;48.736;9.218;2023-05-18T07:06:32;-23536.59;;;11.66;66.14
29385;BME280;16367;48.736;9.218;2023-05-18T07:08:35;-23550.84;;;12.11;66.39
29385;BME280;16367;48.736;9.218;2023-05-18T07:10:38;-23557.97;;;12.34;67.34
29385;BME280;16367;48.736;9.218;2023-05-18T07:12:42;-23572.34;;;12.80;64.16
29385;BME280;16367;48.736;9.218;2023-05-18T07:14:45;-23574.56;;;12.87;64.40
29385;BME280;16367;48.736;9.218;2023-05-18T07:16:48;-23561.44;;;12.45;64.43
29385;BME280;16367;48.736;9.218;2023-05-18T07:18:51;-23551.47;;;12.13;66.08
29385;BME280;16367;48.736;9.218;2023-05-18T07:20:53;-23561.94;;;12.46;66.07
29385;BME280;16367;48.736;9.218;2023-05-18T07:22:56;-23560.81;;;12.43;66.21
29385;BME280;16367;48.736;9.218;2023-05-18T07:25:00;-23552.13;;;12.15;65.85
29385;BME280;16367;48.736;9.218;2023-05-18T07:27:03;-23580.91;;;13.07;63.79
29385;BME280;16367;48.736;9.218;2023-05-18T07:29:07;-23575.53;;;12.90;65.24
29385;BME280;16367;48.736;9.218;2023-05-18T07:31:10;-23604.91;;;13.83;61.62
29385;BME280;16367;48.736;9.218;2023-05-18T07:33:14;-23602.69;;;13.76;62.13
29385;BME280;16367;48.736;9.218;2023-05-18T07:35:17;-23615.97;;;14.18;59.63
29385;BME280;16367;48.736;9.218;2023-05-18T07:37:21;-23615.66;;;14.17;59.87
29385;BME280;16367;48.736;9.218;2023-05-18T07:39:24;-23611.22;;;14.03;60.97
29385;BME280;16367;48.736;9.218;2023-05-18T07:41:29;-23609.97;;;13.99;60.80
29385;BME280;16367;48.736;9.218;2023-05-18T07:43:32;-23653.06;;;15.37;57.16
29385;BME280;16367;48.736;9.218;2023-05-18T07:45:36;-23624.81;;;14.47;57.98
29385;BME280;16367;48.736;9.218;2023-05-18T07:47:39;-23619.28;;;14.29;59.00
29385;BME280;16367;48.736;9.218;2023-05-18T07:49:42;-23612.81;;;14.08;58.31
29385;BME280;16367;48.736;9.218;2023-05-18T07:51:45;-23631.75;;;14.69;58.64
29385;BME280;16367;48.736;9.218;2023-05-18T07:53:47;-23623.22;;;14.42;58.62
29385;BME280;16367;48.736;9.218;2023-05-18T07:55:50;-23615.34;;;14.16;58.74
29385;BME280;16367;48.736;9.218;2023-05-18T07:57:53;-23670.09;;;15.91;56.78
29385;BME280;16367;48.736;9.218;2023-05-18T07:59:55;-23641.38;;;15.00;57.13
29385;BME280;16367;48.736;9.218;2023-05-18T08:01:59;-23645.97;;;15.14;56.86
29385;BME280;16367;48.736;9.218;2023-05-18T08:04:02;-23649.91;;;15.27;55.41
29385;BME280;16367;48.736;9.218;2023-05-18T08:06:05;-23663.47;;;15.70;55.20
29385;BME280;16367;48.736;9.218;2023-05-18T08:08:08;-23630.50;;;14.65;58.75
29385;BME280;16367;48.736;9.218;2023-05-18T08:10:12;-23639.00;;;14.92;58.35
29385;BME280;16367;48.736;9.218;2023-05-18T08:12:15;-23627.34;;;14.55;57.33
29385;BME280;16367;48.736;9.218;2023-05-18T08:14:17;-23660.16;;;15.59;57.05
29385;BME280;16367;48.736;9.218;2023-05-18T08:16:20;-23681.44;;;16.27;55.26
29385;BME280;16367;48.736;9.218;2023-05-18T08:18:24;-23658.25;;;15.53;56.17
29385;BME280;16367;48.736;9.218;2023-05-18T08:20:28;-23664.09;;;15.72;57.12
29385;BME280;16367;48.736;9.218;2023-05-18T08:22:31;-23626.41;;;14.52;58.16
29385;BME280;16367;48.736;9.218;2023-05-18T08:24:33;-23687.56;;;16.47;54.43
29385;BME280;16367;48.736;9.218;2023-05-18T08:26:36;-23689.47;;;16.53;54.94
29385;BME280;16367;48.736;9.218;2023-05-18T08:28:39;-23694.50;;;16.69;53.65
29385;BME280;16367;48.736;9.218;2023-05-18T08:30:42;-23687.41;;;16.47;53.43
29385;BME280;16367;48.736;9.218;2023-05-18T08:32:44;-23661.09;;;15.62;55.29
29385;BME280;16367;48.736;9.218;2023-05-18T08:34:48;-23664.56;;;15.74;53.34
29385;BME280;16367;48.736;9.218;2023-05-18T08:36:52;-23689.63;;;16.54;53.86
29385;BME280;16367;48.736;9.218;2023-05-18T08:38:54;-23696.41;;;16.75;51.66
29385;BME280;16367;48.736;9.218;2023-05-18T08:41:03;-23683.16;;;16.33;51.73
29385;BME280;16367;48.736;9.218;2023-05-18T08:43:11;-23692.78;;;16.64;52.43
29385;BME280;16367;48.736;9.218;2023-05-18T08:45:21;-23690.09;;;16.55;52.10
29385;BME280;16367;48.736;9.218;2023-05-18T08:47:29;-23694.50;;;16.69;51.77
29385;BME280;16367;48.736;9.218;2023-05-18T08:49:33;-23685.38;;;16.40;52.37
29385;BME280;16367;48.736;9.218;2023-05-18T08:51:39;-23667.41;;;15.83;53.14
29385;BME280;16367;48.736;9.218;2023-05-18T08:53:44;-23670.88;;;15.94;53.38
29385;BME280;16367;48.736;9.218;2023-05-18T08:55:52;-23693.56;;;16.66;51.63
29385;BME280;16367;48.736;9.218;2023-05-18T08:57:57;-23690.09;;;16.55;52.02
29385;BME280;16367;48.736;9.218;2023-05-18T09:00:01;-23691.06;;;16.58;52.11
29385;BME280;16367;48.736;9.218;2023-05-18T09:02:05;-23648.78;;;15.23;53.18
29385;BME280;16367;48.736;9.218;2023-05-18T09:04:09;-23633.66;;;14.75;55.69
29385;BME280;16367;48.736;9.218;2023-05-18T09:06:13;-23631.59;;;14.68;55.61
29385;BME280;16367;48.736;9.218;2023-05-18T09:08:17;-23640.91;;;14.98;55.02
29385;BME280;16367;48.736;9.218;2023-05-18T09:10:21;-23616.13;;;14.19;56.61
29385;BME280;16367;48.736;9.218;2023-05-18T09:12:27;-23622.28;;;14.39;56.40
29385;BME280;16367;48.736;9.218;2023-05-18T09:14:30;-23659.22;;;15.56;53.71
29385;BME280;16367;48.736;9.218;2023-05-18T09:16:33;-23645.66;;;15.13;53.88
29385;BME280;16367;48.736;9.218;2023-05-18T09:18:36;-23677.81;;;16.16;53.19
29385;BME280;16367;48.736;9.218;2023-05-18T09:20:39;-23657.63;;;15.51;52.78
29385;BME280;16367;48.736;9.218;2023-05-18T09:22:42;-23652.59;;;15.35;53.38
29385;BME280;16367;48.736;9.218;2023-05-18T09:24:47;-23626.06;;;14.51;55.20
29385;BME280;16367;48.736;9.218;2023-05-18T09:26:50;-23614.06;;;14.12;55.49
29385;BME280;16367;48.736;9.218;2023-05-18T09:28:53;-23604.59;;;13.82;56.45
29385;BME280;16367;48.736;9.218;2023-05-18T09:30:56;-23605.22;;;13.84;56.85
29385;BME280;16367;48.736;9.218;2023-05-18T09:32:59;-23615.97;;;14.18;56.02
29385;BME280;16367;48.736;9.218;2023-05-18T09:35:05;-23627.34;;;14.55;55.71
29385;BME280;16367;48.736;9.218;2023-05-18T09:37:09;-23608.69;;;13.95;55.96
29385;BME280;16367;48.736;9.218;2023-05-18T09:39:11;-23617.22;;;14.23;55.70
29385;BME280;16367;48.736;9.218;2023-05-18T09:41:16;-23631.13;;;14.67;54.17
29385;BME280;16367;48.736;9.218;2023-05-18T09:43:19;-23618.97;;;14.28;55.48
29385;BME280;16367;48.736;9.218;2023-05-18T09:45:22;-23608.38;;;13.94;54.91
29385;BME280;16367;48.736;9.218;2023-05-18T09:47:27;-23654.47;;;15.41;52.97
29385;BME280;16367;48.736;9.218;2023-05-18T09:49:29;-23686.16;;;16.42;51.10
29385;BME280;16367;48.736;9.218;2023-05-18T09:51:35;-23669.63;;;15.90;51.80
29385;BME280;16367;48.736;9.218;2023-05-18T09:53:38;-23693.56;;;16.66;51.45
29385;BME280;16367;48.736;9.218;2023-05-18T09:55:46;-23691.69;;;16.60;50.98
29385;BME280;16367;48.736;9.218;2023-05-18T09:57:51;-23698.13;;;16.81;49.78
29385;BME280;16367;48.736;9.218;2023-05-18T09:59:55;-23648.31;;;15.22;52.00
29385;BME280;16367;48.736;9.218;2023-05-18T10:01:59;-23665.03;;;15.75;50.99
29385;BME280;16367;48.736;9.218;2023-05-18T10:04:03;-23669.94;;;15.91;50.64
29385;BME280;16367;48.736;9.218;2023-05-18T10:06:08;-23672.59;;;15.99;49.24
29385;BME280;16367;48.736;9.218;2023-05-18T10:08:11;-23652.91;;;15.36;51.89
29385;BME280;16367;48.736;9.218;2023-05-18T10:10:16;-23687.25;;;16.46;49.83
29385;BME280;16367;48.736;9.218;2023-05-18T10:12:22;-23671.50;;;15.96;51.65
29385;BME280;16367;48.736;9.218;2023-05-18T10:14:26;-23669.63;;;15.90;50.77
29385;BME280;16367;48.736;9.218;2023-05-18T10:16:34;-23690.72;;;16.57;49.86
29385;BME280;16367;48.736;9.218;2023-05-18T10:18:37;-23681.28;;;16.27;50.46
29385;BME280;16367;48.736;9.218;2023-05-18T10:20:42;-23709.31;;;17.17;49.13
29385;BME280;16367;48.736;9.218;2023-05-18T10:22:46;-23691.06;;;16.58;49.37
29385;BME280;16367;48.736;9.218;2023-05-18T10:24:50;-23686.63;;;16.44;50.43
29385;BME280;16367;48.736;9.218;2023-05-18T10:26:55;-23685.53;;;16.40;49.82
29385;BME280;16367;48.736;9.218;2023-05-18T10:29:03;-23640.75;;;14.98;51.67
29385;BME280;16367;48.736;9.218;2023-05-18T10:31:07;-23628.28;;;14.58;53.16
29385;BME280;16367;48.736;9.218;2023-05-18T10:33:10;-23647.84;;;15.20;51.82
29385;BME280;16367;48.736;9.218;2023-05-18T10:35:29;-23679.38;;;16.21;50.44
29385;BME280;16367;48.736;9.218;2023-05-18T10:37:34;-23671.81;;;15.97;51.41
29385;BME280;16367;48.736;9.218;2023-05-18T10:39:37;-23692.47;;;16.63;49.82
29385;BME280;16367;48.736;9.218;2023-05-18T10:41:41;-23678.59;;;16.18;50.41
29385;BME280;16367;48.736;9.218;2023-05-18T10:43:45;-23662.03;;;15.65;49.88
29385;BME280;16367;48.736;9.218;2023-05-18T10:45:51;-23662.69;;;15.68;51.58
29385;BME280;16367;48.736;9.218;2023-05-18T10:47:58;-23648.16;;;15.21;51.82
29385;BME280;16367;48.736;9.218;2023-05-18T10:50:03;-23662.03;;;15.65;51.33
29385;BME280;16367;48.736;9.218;2023-05-18T10:52:07;-23664.88;;;15.75;50.05
29385;BME280;16367;48.736;9.218;2023-05-18T10:54:12;-23690.88;;;16.58;50.03